createdAt,value
2022-12-26T00:01:20.406Z,9.64
2022-12-26T00:03:23.690Z,9.60
2022-12-26T00:05:27.660Z,9.54
2022-12-26T00:07:30.201Z,9.46
2022-12-26T00:09:33.463Z,9.41
2022-12-26T00:11:37.113Z,9.37
2022-12-26T00:13:41.759Z,9.36
2022-12-26T00:15:44.734Z,9.38
2022-12-26T00:17:47.341Z,9.32
2022-12-26T00:19:49.934Z,9.30
2022-12-26T00:21:53.853Z,9.21
2022-12-26T00:23:57.757Z,9.14
2022-12-26T00:26:04.143Z,9.16
2022-12-26T00:28:06.743Z,9.07
2022-12-26T00:30:10.860Z,8.99
2022-12-26T00:32:13.436Z,8.95
2022-12-26T00:34:16.587Z,8.93
2022-12-26T00:36:21.047Z,8.92
2022-12-26T00:38:25.004Z,8.95
2022-12-26T00:40:27.591Z,8.96
2022-12-26T00:42:30.131Z,8.98
2022-12-26T00:44:32.715Z,9.01
2022-12-26T00:46:35.347Z,9.07
2022-12-26T00:48:38.376Z,9.12
2022-12-26T00:50:41.020Z,9.18
2022-12-26T00:52:44.093Z,9.21
2022-12-26T00:54:48.035Z,9.24
2022-12-26T00:56:50.577Z,9.24
2022-12-26T00:58:53.472Z,9.20
2022-12-26T01:00:57.020Z,9.17
2022-12-26T01:02:59.774Z,9.17
2022-12-26T01:05:02.408Z,9.16
2022-12-26T01:07:04.970Z,9.29
2022-12-26T01:09:07.575Z,9.24
2022-12-26T01:11:13.909Z,9.24
2022-12-26T01:13:15.930Z,9.30
2022-12-26T01:15:19.067Z,9.31
2022-12-26T01:17:21.709Z,9.33
2022-12-26T01:19:24.362Z,9.36
2022-12-26T01:21:27.009Z,9.39
2022-12-26T01:23:30.051Z,9.42
2022-12-26T01:25:32.620Z,9.47
2022-12-26T01:27:36.523Z,9.49
2022-12-26T01:29:39.097Z,9.53
2022-12-26T01:31:41.715Z,9.57
2022-12-26T01:33:44.373Z,9.61
2022-12-26T01:35:52.152Z,9.71
2022-12-26T01:37:56.118Z,9.71
2022-12-26T01:39:58.735Z,9.71
2022-12-26T01:42:01.331Z,9.71
2022-12-26T01:44:07.869Z,9.71
2022-12-26T01:46:10.534Z,9.77
2022-12-26T01:48:21.457Z,9.79
2022-12-26T01:50:33.089Z,9.79
2022-12-26T01:52:39.537Z,9.79
2022-12-26T01:54:46.922Z,9.85
2022-12-26T01:56:49.773Z,9.83
2022-12-26T01:58:57.110Z,9.82
2022-12-26T02:01:03.728Z,9.84
2022-12-26T02:03:26.531Z,9.93
2022-12-26T02:05:36.670Z,9.98
2022-12-26T02:07:41.477Z,9.90
2022-12-26T02:09:44.178Z,9.91
2022-12-26T02:12:35.369Z,9.96
2022-12-26T02:14:16.287Z,9.99
2022-12-26T02:16:20.899Z,9.98
2022-12-26T02:18:23.520Z,9.98
2022-12-26T02:20:28.997Z,10.03
2022-12-26T02:22:52.332Z,10.08
2022-12-26T02:25:27.227Z,10.07
2022-12-26T02:27:42.072Z,10.08
2022-12-26T02:30:12.369Z,10.20
2022-12-26T02:32:22.548Z,10.20
2022-12-26T02:34:36.802Z,10.16
2022-12-26T02:36:53.485Z,10.07
2022-12-26T02:39:43.800Z,10.05
2022-12-26T02:41:44.861Z,10.03
2022-12-26T02:43:58.427Z,10.08
2022-12-26T02:46:29.300Z,10.03
2022-12-26T02:48:44.553Z,10.10
2022-12-26T02:51:19.068Z,10.06
2022-12-26T02:53:47.846Z,10.06
2022-12-26T02:56:12.915Z,10.02
2022-12-26T02:58:39.071Z,9.94
2022-12-26T03:01:03.524Z,10.01
2022-12-26T03:03:29.567Z,10.07
2022-12-26T03:05:55.480Z,10.06
2022-12-26T03:08:17.656Z,10.00
2022-12-26T03:10:42.117Z,10.04
2022-12-26T03:13:05.706Z,10.02
2022-12-26T03:15:11.538Z,10.08
2022-12-26T03:17:27.015Z,10.06
2022-12-26T03:19:33.158Z,10.06
2022-12-26T03:21:42.556Z,10.04
2022-12-26T03:23:47.438Z,10.09
2022-12-26T03:26:13.368Z,10.07
2022-12-26T03:28:16.091Z,10.07
2022-12-26T03:30:36.369Z,10.04
2022-12-26T03:32:44.506Z,10.08
2022-12-26T03:34:46.148Z,10.08
2022-12-26T03:36:56.865Z,10.02
2022-12-26T03:39:09.869Z,9.99
2022-12-26T03:41:39.734Z,10.01
2022-12-26T03:44:13.750Z,10.03
2022-12-26T03:46:40.566Z,10.03
2022-12-26T03:49:09.504Z,10.04
2022-12-26T03:51:39.244Z,10.01
2022-12-26T03:54:08.850Z,10.00
2022-12-26T03:56:35.229Z,10.04
2022-12-26T03:59:00.124Z,10.05
2022-12-26T04:01:26.172Z,10.05
2022-12-26T04:03:49.637Z,10.08
2022-12-26T04:06:12.249Z,10.10
2022-12-26T04:08:38.398Z,10.09
2022-12-26T04:11:04.088Z,10.10
2022-12-26T04:13:37.535Z,10.10
2022-12-26T04:16:02.450Z,10.09
2022-12-26T04:18:27.847Z,10.06
2022-12-26T04:20:36.219Z,10.06
2022-12-26T04:23:01.891Z,10.06
2022-12-26T04:25:49.439Z,10.09
2022-12-26T04:28:12.358Z,10.07
2022-12-26T04:30:32.701Z,10.09
2022-12-26T04:32:57.096Z,10.11
2022-12-26T04:35:27.820Z,10.15
2022-12-26T04:37:50.332Z,10.17
2022-12-26T04:40:15.423Z,10.18
2022-12-26T04:42:37.190Z,10.21
2022-12-26T04:44:41.556Z,10.22
2022-12-26T04:46:46.383Z,10.25
2022-12-26T04:49:09.316Z,10.25
2022-12-26T04:51:10.956Z,10.25
2022-12-26T04:53:15.661Z,10.27
2022-12-26T04:55:17.837Z,10.30
2022-12-26T04:57:20.753Z,10.31
2022-12-26T04:59:23.938Z,10.36
2022-12-26T05:01:45.255Z,10.38
2022-12-26T05:04:05.601Z,10.37
2022-12-26T05:06:28.237Z,10.39
2022-12-26T05:08:52.922Z,10.44
2022-12-26T05:10:55.560Z,10.46
2022-12-26T05:12:58.079Z,10.46
2022-12-26T05:15:00.813Z,10.49
2022-12-26T05:17:22.627Z,10.65
2022-12-26T05:19:43.048Z,10.56
2022-12-26T05:22:03.125Z,10.55
2022-12-26T05:24:23.666Z,10.61
2022-12-26T05:26:44.127Z,10.58
2022-12-26T05:28:50.255Z,10.67
2022-12-26T05:30:52.904Z,10.72
2022-12-26T05:33:14.199Z,10.69
2022-12-26T05:35:16.845Z,10.76
2022-12-26T05:37:19.415Z,10.69
2022-12-26T05:39:21.987Z,10.65
2022-12-26T05:41:25.172Z,10.63
2022-12-26T05:43:27.772Z,10.63
2022-12-26T05:45:30.357Z,10.60
2022-12-26T05:47:32.971Z,10.64
2022-12-26T05:49:36.961Z,10.75
2022-12-26T05:51:39.563Z,10.67
2022-12-26T05:53:42.254Z,10.67
2022-12-26T05:55:44.840Z,10.64
2022-12-26T05:57:47.470Z,10.63
2022-12-26T05:59:50.050Z,10.63
2022-12-26T06:01:52.735Z,10.67
2022-12-26T06:03:57.513Z,10.67
2022-12-26T06:06:01.433Z,10.63
2022-12-26T06:08:04.104Z,10.58
2022-12-26T06:10:07.722Z,10.59
2022-12-26T06:12:10.285Z,10.56
2022-12-26T06:14:12.888Z,10.54
2022-12-26T06:16:17.777Z,10.54
2022-12-26T06:18:21.090Z,10.49
2022-12-26T06:20:23.736Z,10.48
2022-12-26T06:22:29.838Z,10.50
2022-12-26T06:24:32.440Z,10.48
2022-12-26T06:26:34.993Z,10.63
2022-12-26T06:28:38.330Z,10.57
2022-12-26T06:30:40.933Z,10.67
2022-12-26T06:32:43.499Z,10.63
2022-12-26T06:34:46.091Z,10.68
2022-12-26T06:36:48.672Z,10.64
2022-12-26T06:38:53.801Z,10.66
2022-12-26T06:40:56.363Z,10.69
2022-12-26T06:42:58.942Z,10.67
2022-12-26T06:45:01.515Z,10.81
2022-12-26T06:47:04.174Z,10.85
2022-12-26T06:49:07.488Z,10.78
2022-12-26T06:51:12.825Z,10.81
2022-12-26T06:53:15.458Z,10.74
2022-12-26T06:55:19.423Z,10.77
2022-12-26T06:57:21.967Z,10.70
2022-12-26T06:59:24.693Z,10.65
2022-12-26T07:01:28.410Z,10.74
2022-12-26T07:03:31.118Z,10.67
2022-12-26T07:05:37.028Z,10.61
2022-12-26T07:07:39.620Z,10.59
2022-12-26T07:09:42.206Z,10.63
2022-12-26T07:11:47.882Z,10.66
2022-12-26T07:13:50.530Z,10.70
2022-12-26T07:15:53.245Z,10.72
2022-12-26T07:17:56.467Z,10.58
2022-12-26T07:19:59.075Z,10.53
2022-12-26T07:22:01.663Z,10.52
2022-12-26T07:24:04.500Z,10.46
2022-12-26T07:26:07.689Z,10.53
2022-12-26T07:28:11.603Z,10.62
2022-12-26T07:30:14.572Z,10.66
2022-12-26T07:32:17.168Z,10.65
2022-12-26T07:34:19.738Z,10.53
2022-12-26T07:36:23.564Z,10.57
2022-12-26T07:38:26.188Z,10.56
2022-12-26T07:40:29.264Z,10.62
2022-12-26T07:42:31.915Z,10.56
2022-12-26T07:44:36.125Z,10.54
2022-12-26T07:46:38.985Z,10.61
2022-12-26T07:48:41.634Z,10.57
2022-12-26T07:50:47.111Z,10.57
2022-12-26T07:52:49.744Z,10.69
2022-12-26T07:54:52.310Z,10.58
2022-12-26T07:57:09.065Z,10.64
2022-12-26T07:59:20.148Z,10.74
2022-12-26T08:01:24.152Z,10.71
2022-12-26T08:03:26.823Z,10.72
2022-12-26T08:05:29.429Z,10.71
2022-12-26T08:07:32.036Z,10.67
2022-12-26T08:09:34.579Z,10.68
2022-12-26T08:11:37.188Z,10.72
2022-12-26T08:13:39.717Z,10.64
2022-12-26T08:15:42.587Z,10.71
2022-12-26T08:17:46.511Z,10.65
2022-12-26T08:19:49.084Z,10.55
2022-12-26T08:21:51.744Z,10.62
2022-12-26T08:23:54.348Z,10.65
2022-12-26T08:25:57.599Z,10.68
2022-12-26T08:28:00.185Z,10.79
2022-12-26T08:30:02.813Z,10.67
2022-12-26T08:32:05.967Z,10.73
2022-12-26T08:34:09.915Z,10.74
2022-12-26T08:36:14.034Z,10.61
2022-12-26T08:38:16.647Z,10.62
2022-12-26T08:40:39.828Z,10.60
2022-12-26T08:42:56.176Z,10.68
2022-12-26T08:45:04.822Z,10.65
2022-12-26T08:47:07.476Z,10.57
2022-12-26T08:49:11.755Z,10.67
2022-12-26T08:51:16.617Z,10.72
2022-12-26T08:53:20.404Z,10.67
2022-12-26T08:55:22.986Z,10.49
2022-12-26T08:57:25.639Z,10.41
2022-12-26T08:59:28.278Z,10.43
2022-12-26T09:01:32.344Z,10.34
2022-12-26T09:03:35.105Z,10.29
2022-12-26T09:05:39.142Z,10.27
2022-12-26T09:07:41.896Z,10.27
2022-12-26T09:09:45.054Z,10.28
2022-12-26T09:11:47.608Z,10.20
2022-12-26T09:13:50.657Z,10.23
2022-12-26T09:15:53.235Z,10.21
2022-12-26T09:17:55.942Z,10.20
2022-12-26T09:19:59.114Z,10.16
2022-12-26T09:22:20.506Z,10.19
2022-12-26T09:24:23.153Z,10.18
2022-12-26T09:26:26.067Z,10.14
2022-12-26T09:28:28.597Z,10.17
2022-12-26T09:30:31.260Z,10.10
2022-12-26T09:32:34.802Z,10.10
2022-12-26T09:34:37.398Z,10.08
2022-12-26T09:36:40.625Z,10.10
2022-12-26T09:38:46.745Z,10.20
2022-12-26T09:41:00.503Z,10.30
2022-12-26T09:43:17.079Z,10.33
2022-12-26T09:45:28.418Z,10.51
2022-12-26T09:47:34.364Z,10.63
2022-12-26T09:49:44.218Z,10.61
2022-12-26T09:51:50.610Z,10.58
2022-12-26T09:53:56.131Z,10.58
2022-12-26T09:56:02.087Z,10.65
2022-12-26T09:58:14.313Z,10.58
2022-12-26T10:00:21.817Z,10.65
2022-12-26T10:02:27.152Z,10.72
2022-12-26T10:04:30.955Z,10.80
2022-12-26T10:06:39.507Z,10.79
2022-12-26T10:09:16.363Z,10.64
2022-12-26T10:11:31.345Z,10.64
2022-12-26T10:13:41.984Z,10.60
2022-12-26T10:15:50.055Z,10.68
2022-12-26T10:18:00.802Z,10.61
2022-12-26T10:20:21.087Z,10.55
2022-12-26T10:22:40.640Z,10.62
2022-12-26T10:24:46.841Z,10.74
2022-12-26T10:26:52.253Z,10.67
2022-12-26T10:28:59.429Z,10.70
2022-12-26T10:31:07.254Z,10.67
2022-12-26T10:33:15.648Z,10.57
2022-12-26T10:35:28.737Z,10.63
2022-12-26T10:37:36.970Z,10.55
2022-12-26T10:39:48.909Z,10.61
2022-12-26T10:41:54.619Z,10.84
2022-12-26T10:43:57.328Z,10.66
2022-12-26T10:46:27.349Z,10.78
2022-12-26T10:48:30.587Z,10.63
2022-12-26T10:50:35.928Z,10.79
2022-12-26T10:52:41.497Z,10.90
2022-12-26T10:54:48.807Z,11.04
2022-12-26T10:56:53.013Z,10.80
2022-12-26T10:59:02.061Z,10.69
2022-12-26T11:01:33.495Z,10.61
2022-12-26T11:03:36.308Z,10.62
2022-12-26T11:06:15.960Z,10.66
2022-12-26T11:08:10.381Z,10.59
2022-12-26T11:10:19.781Z,10.61
2022-12-26T11:12:34.959Z,10.57
2022-12-26T11:14:39.619Z,10.73
2022-12-26T11:16:42.752Z,10.58
2022-12-26T11:18:49.875Z,10.61
2022-12-26T11:20:52.449Z,10.67
2022-12-26T11:22:55.344Z,10.66
2022-12-26T11:25:20.963Z,10.73
2022-12-26T11:27:25.162Z,10.75
2022-12-26T11:29:27.728Z,10.86
2022-12-26T11:31:32.093Z,10.73
2022-12-26T11:33:37.853Z,10.85
2022-12-26T11:35:48.861Z,10.93
2022-12-26T11:37:55.115Z,11.01
2022-12-26T11:39:58.856Z,10.92
2022-12-26T11:42:10.813Z,10.96
2022-12-26T11:44:19.712Z,10.89
2022-12-26T11:46:23.640Z,11.00
2022-12-26T11:48:28.306Z,10.87
2022-12-26T11:50:32.090Z,10.79
2022-12-26T11:52:38.430Z,10.76
2022-12-26T11:54:49.810Z,10.80
2022-12-26T11:57:04.744Z,10.91
2022-12-26T11:59:18.858Z,10.82
2022-12-26T12:01:21.464Z,10.87
2022-12-26T12:03:33.777Z,10.92
2022-12-26T12:05:46.807Z,10.87
2022-12-26T12:08:10.170Z,10.79
2022-12-26T12:10:47.683Z,10.90
2022-12-26T12:12:57.275Z,10.75
2022-12-26T12:15:09.932Z,10.86
2022-12-26T12:17:26.422Z,10.82
2022-12-26T12:19:39.435Z,10.92
2022-12-26T12:21:44.920Z,10.82
2022-12-26T12:24:02.765Z,10.81
2022-12-26T12:26:12.150Z,10.76
2022-12-26T12:28:42.633Z,10.87
2022-12-26T12:30:53.144Z,10.71
2022-12-26T12:33:18.822Z,10.71
2022-12-26T12:35:38.937Z,10.74
2022-12-26T12:37:57.524Z,10.66
2022-12-26T12:40:05.929Z,10.74
2022-12-26T12:42:24.451Z,10.68
2022-12-26T12:44:51.447Z,10.85
2022-12-26T12:47:08.734Z,10.81
2022-12-26T12:49:31.425Z,10.81
2022-12-26T12:51:42.732Z,10.70
2022-12-26T12:54:23.578Z,10.59
2022-12-26T12:56:41.976Z,10.75
2022-12-26T12:58:55.326Z,10.74
2022-12-26T13:01:04.964Z,10.73
2022-12-26T13:03:12.062Z,10.65
2022-12-26T13:05:22.914Z,10.58
2022-12-26T13:07:31.883Z,10.66
2022-12-26T13:09:39.342Z,10.58
2022-12-26T13:11:46.779Z,10.58
2022-12-26T13:13:54.914Z,10.59
2022-12-26T13:16:04.178Z,10.70
2022-12-26T13:18:13.165Z,10.70
2022-12-26T13:20:21.012Z,10.64
2022-12-26T13:22:28.696Z,10.63
2022-12-26T13:24:35.653Z,10.65
2022-12-26T13:26:40.982Z,10.64
2022-12-26T13:28:55.507Z,10.69
2022-12-26T13:30:59.478Z,10.67
2022-12-26T13:33:02.109Z,10.85
2022-12-26T13:35:05.431Z,10.86
2022-12-26T13:37:46.425Z,10.76
2022-12-26T13:39:53.713Z,10.87
2022-12-26T13:42:17.204Z,10.85
2022-12-26T13:44:27.714Z,10.93
2022-12-26T13:46:55.148Z,10.74
2022-12-26T13:49:00.546Z,10.88
2022-12-26T13:51:05.981Z,10.79
2022-12-26T13:53:29.596Z,10.71
2022-12-26T13:55:44.289Z,10.70
2022-12-26T13:57:47.478Z,10.88
2022-12-26T14:00:07.005Z,10.82
2022-12-26T14:03:15.505Z,10.79
2022-12-26T14:05:15.795Z,10.92
2022-12-26T14:07:25.616Z,10.72
2022-12-26T14:09:45.065Z,10.77
2022-12-26T14:12:01.722Z,10.89
2022-12-26T14:14:13.941Z,10.81
2022-12-26T14:16:24.950Z,10.83
2022-12-26T14:18:44.856Z,10.70
2022-12-26T14:20:56.069Z,10.76
2022-12-26T14:23:10.725Z,10.83
2022-12-26T14:25:23.275Z,10.79
2022-12-26T14:27:35.019Z,10.77
2022-12-26T14:29:45.859Z,10.83
2022-12-26T14:32:15.031Z,10.85
2022-12-26T14:34:31.226Z,10.77
2022-12-26T14:36:40.908Z,10.76
2022-12-26T14:38:51.151Z,10.82
2022-12-26T14:41:03.510Z,10.84
2022-12-26T14:43:32.172Z,10.76
2022-12-26T14:45:46.851Z,10.77
2022-12-26T14:47:50.593Z,10.78
2022-12-26T14:49:56.871Z,10.87
2022-12-26T14:52:34.664Z,10.74
2022-12-26T14:54:43.046Z,10.94
2022-12-26T14:56:48.745Z,10.79
2022-12-26T14:58:52.018Z,10.76
2022-12-26T15:00:57.182Z,10.79
2022-12-26T15:03:34.281Z,10.71
2022-12-26T15:05:40.520Z,10.77
2022-12-26T15:08:24.734Z,10.87
2022-12-26T15:11:08.248Z,10.81
2022-12-26T15:13:33.608Z,10.83
2022-12-26T15:15:48.719Z,10.69
2022-12-26T15:18:11.591Z,10.70
2022-12-26T15:20:52.334Z,10.82
2022-12-26T15:23:37.443Z,10.75
2022-12-26T15:26:12.457Z,10.76
2022-12-26T15:28:53.983Z,10.77
2022-12-26T15:31:20.172Z,10.73
2022-12-26T15:33:32.784Z,10.88
2022-12-26T15:35:45.543Z,10.73
2022-12-26T15:38:11.210Z,10.77
2022-12-26T15:40:17.010Z,10.76
2022-12-26T15:42:30.363Z,10.63
2022-12-26T15:44:43.751Z,10.78
2022-12-26T15:46:56.418Z,10.73
2022-12-26T15:49:19.876Z,10.77
2022-12-26T15:51:32.591Z,10.75
2022-12-26T15:53:50.726Z,10.69
2022-12-26T15:56:07.862Z,10.68
2022-12-26T15:58:25.805Z,10.62
2022-12-26T16:00:31.820Z,10.67
2022-12-26T16:02:40.040Z,10.70
2022-12-26T16:04:47.761Z,10.70
2022-12-26T16:07:03.769Z,10.68
2022-12-26T16:09:33.281Z,10.64
2022-12-26T16:11:49.063Z,10.57
2022-12-26T16:13:58.126Z,10.63
2022-12-26T16:16:01.063Z,10.49
2022-12-26T16:18:15.133Z,10.51
2022-12-26T16:20:40.299Z,10.41
2022-12-26T16:22:46.979Z,10.43
2022-12-26T16:24:52.359Z,10.37
2022-12-26T16:26:55.834Z,10.54
2022-12-26T16:29:01.607Z,10.52
2022-12-26T16:31:05.738Z,10.46
2022-12-26T16:33:08.874Z,10.43
2022-12-26T16:35:19.830Z,10.32
2022-12-26T16:37:26.024Z,10.28
2022-12-26T16:39:28.614Z,10.30
2022-12-26T16:41:33.563Z,10.32
2022-12-26T16:43:36.228Z,10.50
2022-12-26T16:45:39.566Z,10.46
2022-12-26T16:47:42.325Z,10.31
2022-12-26T16:49:45.302Z,10.40
2022-12-26T16:51:50.330Z,10.31
2022-12-26T16:53:52.884Z,10.33
2022-12-26T16:55:58.292Z,10.20
2022-12-26T16:58:06.003Z,10.23
2022-12-26T17:00:18.122Z,10.31
2022-12-26T17:02:25.840Z,10.23
2022-12-26T17:04:30.525Z,10.22
2022-12-26T17:06:35.639Z,10.33
2022-12-26T17:08:43.429Z,10.22
2022-12-26T17:10:49.852Z,10.30
2022-12-26T17:12:53.512Z,10.29
2022-12-26T17:14:59.271Z,10.18
2022-12-26T17:17:04.995Z,10.15
2022-12-26T17:19:16.776Z,10.25
2022-12-26T17:21:23.946Z,10.23
2022-12-26T17:23:38.890Z,10.29
2022-12-26T17:25:45.608Z,10.25
2022-12-26T17:28:29.109Z,10.38
2022-12-26T17:30:33.639Z,10.22
2022-12-26T17:32:39.698Z,10.27
2022-12-26T17:34:42.917Z,10.20
2022-12-26T17:37:17.786Z,10.37
2022-12-26T17:39:12.807Z,10.32
2022-12-26T17:41:17.767Z,10.31
2022-12-26T17:43:24.477Z,10.29
2022-12-26T17:45:28.490Z,10.26
2022-12-26T17:47:32.435Z,10.29
2022-12-26T17:49:35.037Z,10.32
2022-12-26T17:51:37.611Z,10.35
2022-12-26T17:53:42.650Z,10.53
2022-12-26T17:55:45.249Z,10.52
2022-12-26T17:57:48.665Z,10.57
2022-12-26T17:59:52.531Z,10.45
2022-12-26T18:01:55.248Z,10.41
2022-12-26T18:03:59.222Z,10.57
2022-12-26T18:06:02.004Z,10.47
2022-12-26T18:08:05.172Z,10.49
2022-12-26T18:10:11.311Z,10.63
2022-12-26T18:12:14.695Z,10.51
2022-12-26T18:14:17.289Z,10.63
2022-12-26T18:16:24.968Z,10.58
2022-12-26T18:18:33.263Z,10.68
2022-12-26T18:20:37.229Z,10.73
2022-12-26T18:22:39.809Z,10.69
2022-12-26T18:24:43.003Z,10.59
2022-12-26T18:26:45.677Z,10.60
2022-12-26T18:28:49.927Z,10.74
2022-12-26T18:30:52.807Z,10.63
2022-12-26T18:32:55.789Z,10.69
2022-12-26T18:34:59.127Z,10.57
2022-12-26T18:37:03.021Z,10.48
2022-12-26T18:39:06.785Z,10.42
2022-12-26T18:41:14.873Z,10.46
2022-12-26T18:43:17.612Z,10.44
2022-12-26T18:45:20.291Z,10.25
2022-12-26T18:47:24.135Z,10.29
2022-12-26T18:49:27.607Z,10.16
2022-12-26T18:51:30.182Z,10.03
2022-12-26T18:53:34.054Z,9.93
2022-12-26T18:55:36.685Z,9.83
2022-12-26T18:57:40.378Z,9.70
2022-12-26T18:59:43.102Z,9.60
2022-12-26T19:01:45.827Z,9.50
2022-12-26T19:03:48.613Z,9.45
2022-12-26T19:05:51.160Z,9.42
2022-12-26T19:07:54.420Z,9.43
2022-12-26T19:10:00.761Z,9.32
2022-12-26T19:12:03.358Z,9.33
2022-12-26T19:14:08.156Z,9.36
2022-12-26T19:16:11.569Z,9.50
2022-12-26T19:18:14.557Z,9.40
2022-12-26T19:20:19.640Z,9.36
2022-12-26T19:22:22.235Z,9.55
2022-12-26T19:24:25.008Z,9.56
2022-12-26T19:26:28.981Z,9.46
2022-12-26T19:28:31.519Z,9.30
2022-12-26T19:30:38.706Z,9.29
2022-12-26T19:32:43.232Z,9.36
2022-12-26T19:34:45.880Z,9.20
2022-12-26T19:36:48.460Z,9.17
2022-12-26T19:38:53.667Z,9.19
2022-12-26T19:41:02.153Z,9.13
2022-12-26T19:43:06.132Z,9.12
2022-12-26T19:45:11.058Z,9.10
2022-12-26T19:47:13.684Z,9.10
2022-12-26T19:49:16.343Z,9.12
2022-12-26T19:51:19.591Z,9.11
2022-12-26T19:53:24.535Z,9.07
2022-12-26T19:55:28.435Z,9.10
2022-12-26T19:57:31.994Z,9.04
2022-12-26T19:59:36.152Z,8.99
2022-12-26T20:01:38.829Z,8.99
2022-12-26T20:03:42.573Z,9.05
2022-12-26T20:05:45.181Z,9.05
2022-12-26T20:07:47.830Z,9.00
2022-12-26T20:09:50.556Z,8.95
2022-12-26T20:11:54.043Z,9.00
2022-12-26T20:13:56.721Z,8.99
2022-12-26T20:16:03.546Z,8.93
2022-12-26T20:18:06.170Z,8.94
2022-12-26T20:20:09.641Z,8.94
2022-12-26T20:22:12.574Z,8.93
2022-12-26T20:24:15.433Z,8.96
2022-12-26T20:26:20.051Z,8.96
2022-12-26T20:28:22.731Z,8.89
2022-12-26T20:30:25.335Z,8.88
2022-12-26T20:32:29.337Z,8.90
2022-12-26T20:34:32.017Z,9.17
2022-12-26T20:36:36.507Z,9.17
2022-12-26T20:38:39.997Z,9.17
2022-12-26T20:40:49.739Z,9.19
2022-12-26T20:42:52.675Z,9.14
2022-12-26T20:44:55.426Z,9.12
2022-12-26T20:46:58.002Z,9.18
2022-12-26T20:49:02.517Z,9.10
2022-12-26T20:51:07.629Z,9.13
2022-12-26T20:53:10.304Z,9.12
2022-12-26T20:55:16.390Z,9.29
2022-12-26T20:57:18.978Z,9.19
2022-12-26T20:59:21.771Z,9.23
2022-12-26T21:01:24.428Z,9.32
2022-12-26T21:03:27.528Z,9.23
2022-12-26T21:05:31.529Z,9.19
2022-12-26T21:07:34.095Z,9.29
2022-12-26T21:09:40.990Z,9.30
2022-12-26T21:11:48.357Z,9.18
2022-12-26T21:13:52.986Z,9.13
2022-12-26T21:15:55.588Z,9.17
2022-12-26T21:17:58.235Z,9.24
2022-12-26T21:20:00.818Z,9.11
2022-12-26T21:22:04.823Z,9.22
2022-12-26T21:24:11.499Z,9.22
2022-12-26T21:26:14.605Z,9.21
2022-12-26T21:28:17.171Z,9.34
2022-12-26T21:30:19.780Z,9.20
2022-12-26T21:32:22.314Z,9.22
2022-12-26T21:34:27.281Z,9.19
2022-12-26T21:36:31.022Z,9.09
2022-12-26T21:38:34.217Z,9.12
2022-12-26T21:40:36.817Z,9.04
2022-12-26T21:42:39.433Z,9.05
2022-12-26T21:44:42.467Z,9.05
2022-12-26T21:46:45.084Z,9.02
2022-12-26T21:48:49.733Z,9.02
2022-12-26T21:50:52.368Z,9.14
2022-12-26T21:52:56.530Z,8.99
2022-12-26T21:55:21.921Z,9.04
2022-12-26T21:57:25.721Z,8.94
2022-12-26T21:59:46.129Z,9.06
2022-12-26T22:01:48.837Z,9.02
2022-12-26T22:04:18.342Z,8.88
2022-12-26T22:06:20.882Z,8.85
2022-12-26T22:08:23.566Z,8.80
2022-12-26T22:10:47.761Z,8.76
2022-12-26T22:13:00.439Z,8.72
2022-12-26T22:15:02.993Z,8.70
2022-12-26T22:17:08.572Z,8.68
2022-12-26T22:19:11.392Z,8.67
2022-12-26T22:21:15.873Z,8.65
2022-12-26T22:23:17.477Z,8.64
2022-12-26T22:25:20.682Z,8.65
2022-12-26T22:27:24.571Z,8.63
2022-12-26T22:29:27.144Z,8.63
2022-12-26T22:31:31.706Z,8.63
2022-12-26T22:33:34.751Z,8.59
2022-12-26T22:35:37.298Z,8.58
2022-12-26T22:37:39.898Z,8.58
2022-12-26T22:39:42.466Z,8.62
2022-12-26T22:41:45.620Z,8.61
2022-12-26T22:43:49.691Z,8.63
2022-12-26T22:45:52.544Z,8.60
2022-12-26T22:47:55.261Z,8.64
2022-12-26T22:49:57.852Z,8.66
2022-12-26T22:52:01.028Z,8.70
2022-12-26T22:54:03.620Z,8.71
2022-12-26T22:56:07.620Z,8.73
2022-12-26T22:58:10.164Z,8.75
2022-12-26T23:00:15.342Z,8.76
2022-12-26T23:02:20.428Z,8.70
2022-12-26T23:04:23.509Z,8.70
2022-12-26T23:06:29.316Z,8.70
2022-12-26T23:08:32.460Z,8.83
2022-12-26T23:10:36.168Z,8.83
2022-12-26T23:12:44.177Z,8.74
2022-12-26T23:14:47.037Z,8.74
2022-12-26T23:16:55.103Z,8.78
2022-12-26T23:19:14.789Z,8.69
2022-12-26T23:21:44.600Z,8.61
2022-12-26T23:23:47.728Z,8.60
2022-12-26T23:25:50.550Z,8.58
2022-12-26T23:28:10.990Z,8.65
2022-12-26T23:30:20.330Z,8.71
2022-12-26T23:32:24.226Z,8.62
2022-12-26T23:34:27.054Z,8.55
2022-12-26T23:36:29.643Z,8.52
2022-12-26T23:38:32.260Z,8.53
2022-12-26T23:40:34.847Z,8.50
2022-12-26T23:42:37.661Z,8.51
2022-12-26T23:44:40.265Z,8.50
2022-12-26T23:46:44.627Z,8.45
2022-12-26T23:48:51.016Z,8.48
2022-12-26T23:51:02.536Z,8.51
2022-12-26T23:53:05.293Z,8.36
2022-12-26T23:55:08.274Z,8.32
2022-12-26T23:57:10.834Z,8.40
2022-12-26T23:59:13.463Z,8.29
